sensor_id;sensor_type;location;lat;lon;timestamp;pressure;altitude;pressure_sealevel;temperature;humidity
28432;BME280;15664;51.302;7.744;2023-01-29T00:01:49;84316.09;;;-146.98;91.75
28432;BME280;15664;51.302;7.744;2023-01-29T00:04:15;84340.53;;;-146.98;91.80
28432;BME280;15664;51.302;7.744;2023-01-29T00:06:40;84340.53;;;-146.98;91.93
28432;BME280;15664;51.302;7.744;2023-01-29T00:09:06;84285.53;;;-146.98;91.99
28432;BME280;15664;51.302;7.744;2023-01-29T00:11:31;84338.50;;;-146.98;91.86
28432;BME280;15664;51.302;7.744;2023-01-29T00:13:57;84354.81;;;-146.98;91.75
28432;BME280;15664;51.302;7.744;2023-01-29T00:16:23;84360.91;;;-146.98;91.68
28432;BME280;15664;51.302;7.744;2023-01-29T00:18:48;84365.00;;;-146.98;91.63
28432;BME280;15664;51.302;7.744;2023-01-29T00:21:17;84350.72;;;-146.98;91.69
28432;BME280;15664;51.302;7.744;2023-01-29T00:23:43;84375.19;;;-146.98;91.83
28432;BME280;15664;51.302;7.744;2023-01-29T00:26:09;84342.59;;;-146.98;91.74
28432;BME280;15664;51.302;7.744;2023-01-29T00:28:36;84389.44;;;-146.98;91.74
28432;BME280;15664;51.302;7.744;2023-01-29T00:31:16;84342.59;;;-146.98;91.78
28432;BME280;15664;51.302;7.744;2023-01-29T00:33:42;84358.88;;;-146.98;91.72
28432;BME280;15664;51.302;7.744;2023-01-29T00:36:09;84426.09;;;-146.98;91.83
28432;BME280;15664;51.302;7.744;2023-01-29T00:38:36;84379.25;;;-146.98;91.85
28432;BME280;15664;51.302;7.744;2023-01-29T00:41:14;84385.38;;;-146.98;91.73
28432;BME280;15664;51.302;7.744;2023-01-29T00:43:59;84346.66;;;-146.98;91.71
28432;BME280;15664;51.302;7.744;2023-01-29T00:46:44;84367.03;;;-146.98;91.74
28432;BME280;15664;51.302;7.744;2023-01-29T00:49:10;84352.75;;;-146.98;91.47
28432;BME280;15664;51.302;7.744;2023-01-29T00:51:36;84411.84;;;-146.98;91.49
28432;BME280;15664;51.302;7.744;2023-01-29T00:54:03;84403.69;;;-146.98;91.51
28432;BME280;15664;51.302;7.744;2023-01-29T00:56:32;84371.09;;;-146.98;91.49
28432;BME280;15664;51.302;7.744;2023-01-29T00:58:58;84365.00;;;-146.98;91.76
28432;BME280;15664;51.302;7.744;2023-01-29T01:01:23;84336.47;;;-146.98;92.01
28432;BME280;15664;51.302;7.744;2023-01-29T01:04:09;84367.03;;;-146.98;92.10
28432;BME280;15664;51.302;7.744;2023-01-29T01:06:41;84393.50;;;-146.98;91.78
28432;BME280;15664;51.302;7.744;2023-01-29T01:09:08;84348.69;;;-146.98;91.76
28432;BME280;15664;51.302;7.744;2023-01-29T01:11:52;84332.41;;;-146.98;91.66
28432;BME280;15664;51.302;7.744;2023-01-29T01:14:19;84326.28;;;-146.98;91.58
28432;BME280;15664;51.302;7.744;2023-01-29T01:16:45;84365.00;;;-146.98;91.52
28432;BME280;15664;51.302;7.744;2023-01-29T01:19:11;84350.72;;;-146.98;91.72
28432;BME280;15664;51.302;7.744;2023-01-29T01:21:37;84375.19;;;-146.98;91.74
28432;BME280;15664;51.302;7.744;2023-01-29T01:24:03;84365.00;;;-146.98;91.63
28432;BME280;15664;51.302;7.744;2023-01-29T01:26:31;84348.69;;;-146.98;91.56
28432;BME280;15664;51.302;7.744;2023-01-29T01:28:56;84338.50;;;-146.98;91.56
28432;BME280;15664;51.302;7.744;2023-01-29T01:31:22;84444.44;;;-146.98;91.39
28432;BME280;15664;51.302;7.744;2023-01-29T01:33:47;84362.94;;;-146.98;91.46
28432;BME280;15664;51.302;7.744;2023-01-29T01:36:12;84334.44;;;-146.98;91.33
28432;BME280;15664;51.302;7.744;2023-01-29T01:38:38;84354.81;;;-146.98;91.40
28432;BME280;15664;51.302;7.744;2023-01-29T01:41:13;84362.94;;;-146.98;91.54
28432;BME280;15664;51.302;7.744;2023-01-29T01:43:46;84367.03;;;-146.98;91.63
28432;BME280;15664;51.302;7.744;2023-01-29T01:46:12;84354.81;;;-146.98;91.68
28432;BME280;15664;51.302;7.744;2023-01-29T01:48:38;84350.72;;;-146.98;91.79
28432;BME280;15664;51.302;7.744;2023-01-29T01:51:04;84336.47;;;-146.98;91.67
28432;BME280;15664;51.302;7.744;2023-01-29T01:53:43;84362.94;;;-146.98;91.71
28432;BME280;15664;51.302;7.744;2023-01-29T01:56:15;84354.81;;;-146.98;91.74
28432;BME280;15664;51.302;7.744;2023-01-29T01:58:45;84365.00;;;-146.98;91.72
28432;BME280;15664;51.302;7.744;2023-01-29T02:01:14;84365.00;;;-146.98;91.74
28432;BME280;15664;51.302;7.744;2023-01-29T02:03:45;84369.06;;;-146.98;91.80
28432;BME280;15664;51.302;7.744;2023-01-29T02:06:31;84334.44;;;-146.98;91.76
28432;BME280;15664;51.302;7.744;2023-01-29T02:09:25;84358.88;;;-146.98;91.88
28432;BME280;15664;51.302;7.744;2023-01-29T02:11:59;84373.13;;;-146.98;91.81
28432;BME280;15664;51.302;7.744;2023-01-29T02:14:25;84332.41;;;-146.98;91.92
28432;BME280;15664;51.302;7.744;2023-01-29T02:16:50;84379.25;;;-146.98;91.98
28432;BME280;15664;51.302;7.744;2023-01-29T02:19:38;84411.84;;;-146.98;92.09
28432;BME280;15664;51.302;7.744;2023-01-29T02:25:09;84369.06;;;-146.98;92.45
28432;BME280;15664;51.302;7.744;2023-01-29T02:30:22;84365.00;;;-146.98;92.35
28432;BME280;15664;51.302;7.744;2023-01-29T02:32:59;84344.63;;;-146.98;92.25
28432;BME280;15664;51.302;7.744;2023-01-29T02:35:41;84401.66;;;-146.98;92.21
28432;BME280;15664;51.302;7.744;2023-01-29T02:38:29;84395.53;;;-146.98;92.17
28432;BME280;15664;51.302;7.744;2023-01-29T02:43:52;84371.09;;;-146.98;91.99
28432;BME280;15664;51.302;7.744;2023-01-29T02:46:40;84367.03;;;-146.98;91.82
28432;BME280;15664;51.302;7.744;2023-01-29T02:51:53;84354.81;;;-146.98;91.66
28432;BME280;15664;51.302;7.744;2023-01-29T02:54:50;84324.25;;;-146.98;91.56
28432;BME280;15664;51.302;7.744;2023-01-29T02:57:22;84381.28;;;-146.98;91.54
28432;BME280;15664;51.302;7.744;2023-01-29T03:00:10;84367.03;;;-146.98;91.57
28432;BME280;15664;51.302;7.744;2023-01-29T03:02:49;84403.69;;;-146.98;91.51
28432;BME280;15664;51.302;7.744;2023-01-29T03:05:36;84362.94;;;-146.98;91.56
28432;BME280;15664;51.302;7.744;2023-01-29T03:08:11;84373.13;;;-146.98;91.58
28432;BME280;15664;51.302;7.744;2023-01-29T03:10:47;84334.44;;;-146.98;92.13
28432;BME280;15664;51.302;7.744;2023-01-29T03:13:22;84379.25;;;-146.98;92.13
28432;BME280;15664;51.302;7.744;2023-01-29T03:15:55;84338.50;;;-146.98;92.08
28432;BME280;15664;51.302;7.744;2023-01-29T03:18:39;84330.34;;;-146.98;91.95
28432;BME280;15664;51.302;7.744;2023-01-29T03:21:20;84350.72;;;-146.98;91.83
28432;BME280;15664;51.302;7.744;2023-01-29T03:24:09;84379.25;;;-146.98;91.65
28432;BME280;15664;51.302;7.744;2023-01-29T03:26:57;84385.38;;;-146.98;91.61
28432;BME280;15664;51.302;7.744;2023-01-29T03:29:46;84297.78;;;-146.98;91.53
28432;BME280;15664;51.302;7.744;2023-01-29T03:32:55;84371.09;;;-146.98;91.41
28432;BME280;15664;51.302;7.744;2023-01-29T03:35:27;84434.25;;;-146.98;91.45
28432;BME280;15664;51.302;7.744;2023-01-29T03:38:03;84362.94;;;-146.98;91.49
28432;BME280;15664;51.302;7.744;2023-01-29T03:40:47;84342.59;;;-146.98;91.49
28432;BME280;15664;51.302;7.744;2023-01-29T03:46:05;84401.66;;;-146.98;91.69
28432;BME280;15664;51.302;7.744;2023-01-29T03:54:03;84371.09;;;-146.98;91.65
28432;BME280;15664;51.302;7.744;2023-01-29T03:56:38;84395.53;;;-146.98;91.93
28432;BME280;15664;51.302;7.744;2023-01-29T03:59:24;84365.00;;;-146.98;92.01
28432;BME280;15664;51.302;7.744;2023-01-29T04:02:37;84403.69;;;-146.98;92.37
28432;BME280;15664;51.302;7.744;2023-01-29T04:05:15;84332.41;;;-146.98;92.48
28432;BME280;15664;51.302;7.744;2023-01-29T04:08:11;84322.22;;;-146.98;92.76
28432;BME280;15664;51.302;7.744;2023-01-29T04:10:41;84332.41;;;-146.98;92.93
28432;BME280;15664;51.302;7.744;2023-01-29T04:13:10;84332.41;;;-146.98;93.04
28432;BME280;15664;51.302;7.744;2023-01-29T04:15:46;84344.63;;;-146.98;93.28
28432;BME280;15664;51.302;7.744;2023-01-29T04:18:13;84334.44;;;-146.98;93.49
28432;BME280;15664;51.302;7.744;2023-01-29T04:20:58;84350.72;;;-146.98;93.71
28432;BME280;15664;51.302;7.744;2023-01-29T04:23:25;84230.53;;;-146.98;93.89
28432;BME280;15664;51.302;7.744;2023-01-29T04:31:13;84310.00;;;-146.98;94.32
28432;BME280;15664;51.302;7.744;2023-01-29T04:34:04;84342.59;;;-146.98;94.32
28432;BME280;15664;51.302;7.744;2023-01-29T04:36:37;84334.44;;;-146.98;94.43
28432;BME280;15664;51.302;7.744;2023-01-29T04:39:17;84281.47;;;-146.98;94.58
28432;BME280;15664;51.302;7.744;2023-01-29T04:44:28;84324.25;;;-146.98;94.57
28432;BME280;15664;51.302;7.744;2023-01-29T04:49:34;84277.41;;;-146.98;94.65
28432;BME280;15664;51.302;7.744;2023-01-29T04:55:28;84318.13;;;-146.98;94.85
28432;BME280;15664;51.302;7.744;2023-01-29T04:58:16;84299.81;;;-146.98;94.76
28432;BME280;15664;51.302;7.744;2023-01-29T05:00:47;84285.53;;;-146.98;94.80
28432;BME280;15664;51.302;7.744;2023-01-29T05:03:15;84246.84;;;-146.98;94.88
28432;BME280;15664;51.302;7.744;2023-01-29T05:05:44;84242.78;;;-146.98;94.89
28432;BME280;15664;51.302;7.744;2023-01-29T05:08:14;84305.91;;;-146.98;95.17
28432;BME280;15664;51.302;7.744;2023-01-29T05:10:40;84252.97;;;-146.98;95.19
28432;BME280;15664;51.302;7.744;2023-01-29T05:13:10;84285.53;;;-146.98;95.01
28432;BME280;15664;51.302;7.744;2023-01-29T05:15:40;84265.19;;;-146.98;94.96
28432;BME280;15664;51.302;7.744;2023-01-29T05:18:07;84263.13;;;-146.98;94.95
28432;BME280;15664;51.302;7.744;2023-01-29T05:20:35;84265.19;;;-146.98;94.85
28432;BME280;15664;51.302;7.744;2023-01-29T05:23:02;84269.25;;;-146.98;94.14
28432;BME280;15664;51.302;7.744;2023-01-29T05:25:30;84305.91;;;-146.98;94.20
28432;BME280;15664;51.302;7.744;2023-01-29T05:27:56;84183.69;;;-146.98;94.27
28432;BME280;15664;51.302;7.744;2023-01-29T05:30:41;84295.72;;;-146.98;94.27
28432;BME280;15664;51.302;7.744;2023-01-29T05:33:20;84273.31;;;-146.98;94.25
28432;BME280;15664;51.302;7.744;2023-01-29T05:35:46;84236.66;;;-146.98;94.12
28432;BME280;15664;51.302;7.744;2023-01-29T05:38:11;84281.47;;;-146.98;94.15
28432;BME280;15664;51.302;7.744;2023-01-29T05:40:37;84240.72;;;-146.98;93.96
28432;BME280;15664;51.302;7.744;2023-01-29T05:43:03;84226.47;;;-146.98;93.83
28432;BME280;15664;51.302;7.744;2023-01-29T05:45:29;84291.66;;;-146.98;93.84
28432;BME280;15664;51.302;7.744;2023-01-29T05:47:59;84281.47;;;-146.98;93.62
28432;BME280;15664;51.302;7.744;2023-01-29T05:50:25;84283.50;;;-146.98;93.53
28432;BME280;15664;51.302;7.744;2023-01-29T05:52:58;84289.63;;;-146.98;93.51
28432;BME280;15664;51.302;7.744;2023-01-29T05:55:24;84293.69;;;-146.98;93.38
28432;BME280;15664;51.302;7.744;2023-01-29T05:57:50;84261.09;;;-146.98;93.49
28432;BME280;15664;51.302;7.744;2023-01-29T06:00:16;84269.25;;;-146.98;93.44
28432;BME280;15664;51.302;7.744;2023-01-29T06:02:41;84297.78;;;-146.98;93.60
28432;BME280;15664;51.302;7.744;2023-01-29T06:05:07;84295.72;;;-146.98;93.69
28432;BME280;15664;51.302;7.744;2023-01-29T06:07:32;84236.66;;;-146.98;93.71
28432;BME280;15664;51.302;7.744;2023-01-29T06:09:58;84248.88;;;-146.98;93.92
28432;BME280;15664;51.302;7.744;2023-01-29T06:12:23;84277.41;;;-146.98;93.89
28432;BME280;15664;51.302;7.744;2023-01-29T06:14:49;84248.88;;;-146.98;93.96
28432;BME280;15664;51.302;7.744;2023-01-29T06:17:14;84200.00;;;-146.98;94.05
28432;BME280;15664;51.302;7.744;2023-01-29T06:19:40;84259.06;;;-146.98;94.10
28432;BME280;15664;51.302;7.744;2023-01-29T06:22:05;84236.66;;;-146.98;93.98
28432;BME280;15664;51.302;7.744;2023-01-29T06:24:30;84183.69;;;-146.98;94.04
28432;BME280;15664;51.302;7.744;2023-01-29T06:26:57;84267.22;;;-146.98;94.04
28432;BME280;15664;51.302;7.744;2023-01-29T06:29:22;84244.81;;;-146.98;94.09
28432;BME280;15664;51.302;7.744;2023-01-29T06:31:47;84271.28;;;-146.98;94.19
28432;BME280;15664;51.302;7.744;2023-01-29T06:34:12;84222.41;;;-146.98;94.04
28432;BME280;15664;51.302;7.744;2023-01-29T06:36:38;84236.66;;;-146.98;94.23
28432;BME280;15664;51.302;7.744;2023-01-29T06:39:03;84230.53;;;-146.98;94.21
28432;BME280;15664;51.302;7.744;2023-01-29T06:41:28;84220.38;;;-146.98;94.07
28432;BME280;15664;51.302;7.744;2023-01-29T06:43:54;84216.28;;;-146.98;94.07
28432;BME280;15664;51.302;7.744;2023-01-29T06:46:19;84220.38;;;-146.98;94.08
28432;BME280;15664;51.302;7.744;2023-01-29T06:48:44;84252.97;;;-146.98;93.98
28432;BME280;15664;51.302;7.744;2023-01-29T06:51:10;84234.63;;;-146.98;93.90
28432;BME280;15664;51.302;7.744;2023-01-29T06:53:37;84250.91;;;-146.98;94.07
28432;BME280;15664;51.302;7.744;2023-01-29T06:56:03;84259.06;;;-146.98;94.13
28432;BME280;15664;51.302;7.744;2023-01-29T06:58:29;84259.06;;;-146.98;94.04
28432;BME280;15664;51.302;7.744;2023-01-29T07:01:05;84267.22;;;-146.98;94.11
28432;BME280;15664;51.302;7.744;2023-01-29T07:03:31;84281.47;;;-146.98;93.97
28432;BME280;15664;51.302;7.744;2023-01-29T07:05:56;84240.72;;;-146.98;94.18
28432;BME280;15664;51.302;7.744;2023-01-29T07:08:22;84228.50;;;-146.98;93.93
28432;BME280;15664;51.302;7.744;2023-01-29T07:10:48;84252.97;;;-146.98;93.96
28432;BME280;15664;51.302;7.744;2023-01-29T07:13:14;84210.19;;;-146.98;93.52
28432;BME280;15664;51.302;7.744;2023-01-29T07:15:39;84206.09;;;-146.98;93.47
28432;BME280;15664;51.302;7.744;2023-01-29T07:18:04;84240.72;;;-146.98;93.60
28432;BME280;15664;51.302;7.744;2023-01-29T07:20:36;84244.81;;;-146.98;93.51
28432;BME280;15664;51.302;7.744;2023-01-29T07:23:02;84210.19;;;-146.98;93.76
28432;BME280;15664;51.302;7.744;2023-01-29T07:25:28;84224.44;;;-146.98;93.77
28432;BME280;15664;51.302;7.744;2023-01-29T07:27:54;84214.25;;;-146.98;93.93
28432;BME280;15664;51.302;7.744;2023-01-29T07:30:20;84218.31;;;-146.98;93.98
28432;BME280;15664;51.302;7.744;2023-01-29T07:32:45;84202.03;;;-146.98;93.96
28432;BME280;15664;51.302;7.744;2023-01-29T07:35:10;84218.31;;;-146.98;94.01
28432;BME280;15664;51.302;7.744;2023-01-29T07:37:36;84222.41;;;-146.98;93.80
28432;BME280;15664;51.302;7.744;2023-01-29T07:40:02;84234.63;;;-146.98;92.60
28432;BME280;15664;51.302;7.744;2023-01-29T07:42:29;84257.03;;;-146.98;92.73
28432;BME280;15664;51.302;7.744;2023-01-29T07:44:54;84252.97;;;-146.98;92.95
28432;BME280;15664;51.302;7.744;2023-01-29T07:47:19;84265.19;;;-146.98;92.55
28432;BME280;15664;51.302;7.744;2023-01-29T07:49:45;84240.72;;;-146.98;92.86
28432;BME280;15664;51.302;7.744;2023-01-29T07:52:10;84248.88;;;-146.98;92.60
28432;BME280;15664;51.302;7.744;2023-01-29T07:54:35;84197.97;;;-146.98;92.76
28432;BME280;15664;51.302;7.744;2023-01-29T07:57:01;84204.06;;;-146.98;92.76
28432;BME280;15664;51.302;7.744;2023-01-29T07:59:26;84189.81;;;-146.98;92.88
28432;BME280;15664;51.302;7.744;2023-01-29T08:01:51;84175.56;;;-146.98;93.09
28432;BME280;15664;51.302;7.744;2023-01-29T08:04:16;84238.69;;;-146.98;93.15
28432;BME280;15664;51.302;7.744;2023-01-29T08:06:42;84228.50;;;-146.98;93.10
28432;BME280;15664;51.302;7.744;2023-01-29T08:09:07;84238.69;;;-146.98;93.06
28432;BME280;15664;51.302;7.744;2023-01-29T08:11:33;84232.59;;;-146.98;93.16
28432;BME280;15664;51.302;7.744;2023-01-29T08:13:58;84204.06;;;-146.98;93.21
28432;BME280;15664;51.302;7.744;2023-01-29T08:16:23;84177.59;;;-146.98;93.31
28432;BME280;15664;51.302;7.744;2023-01-29T08:18:49;84200.00;;;-146.98;93.19
28432;BME280;15664;51.302;7.744;2023-01-29T08:21:14;84238.69;;;-146.98;93.40
28432;BME280;15664;51.302;7.744;2023-01-29T08:23:40;84218.31;;;-146.98;93.34
28432;BME280;15664;51.302;7.744;2023-01-29T08:26:05;84185.72;;;-146.98;93.51
28432;BME280;15664;51.302;7.744;2023-01-29T08:28:31;84200.00;;;-146.98;93.38
28432;BME280;15664;51.302;7.744;2023-01-29T08:30:56;84191.84;;;-146.98;93.31
28432;BME280;15664;51.302;7.744;2023-01-29T08:33:21;84208.13;;;-146.98;93.03
28432;BME280;15664;51.302;7.744;2023-01-29T08:35:48;84165.38;;;-146.98;93.11
28432;BME280;15664;51.302;7.744;2023-01-29T08:38:14;84191.84;;;-146.98;91.72
28432;BME280;15664;51.302;7.744;2023-01-29T08:40:40;84173.50;;;-146.98;91.61
28432;BME280;15664;51.302;7.744;2023-01-29T08:43:06;84220.38;;;-146.98;91.45
28432;BME280;15664;51.302;7.744;2023-01-29T08:45:34;84218.31;;;-146.98;91.37
28432;BME280;15664;51.302;7.744;2023-01-29T08:47:59;84189.81;;;-146.98;91.39
28432;BME280;15664;51.302;7.744;2023-01-29T08:50:25;84151.09;;;-146.98;91.15
28432;BME280;15664;51.302;7.744;2023-01-29T08:52:50;84187.78;;;-146.98;90.67
28432;BME280;15664;51.302;7.744;2023-01-29T08:55:16;84185.72;;;-146.98;90.39
28432;BME280;15664;51.302;7.744;2023-01-29T08:57:41;84216.28;;;-146.98;90.30
28432;BME280;15664;51.302;7.744;2023-01-29T09:00:08;84220.38;;;-146.98;90.23
28432;BME280;15664;51.302;7.744;2023-01-29T09:02:34;84151.09;;;-146.98;90.36
28432;BME280;15664;51.302;7.744;2023-01-29T09:05:00;84220.38;;;-146.98;90.42
28432;BME280;15664;51.302;7.744;2023-01-29T09:07:25;84191.84;;;-146.98;90.27
28432;BME280;15664;51.302;7.744;2023-01-29T09:09:50;84189.81;;;-146.98;90.59
28432;BME280;15664;51.302;7.744;2023-01-29T09:12:15;84177.59;;;-146.98;90.65
28432;BME280;15664;51.302;7.744;2023-01-29T09:14:41;84171.47;;;-146.98;90.95
28432;BME280;15664;51.302;7.744;2023-01-29T09:17:06;84118.50;;;-146.98;91.25
28432;BME280;15664;51.302;7.744;2023-01-29T09:19:31;84132.78;;;-146.98;91.40
28432;BME280;15664;51.302;7.744;2023-01-29T09:21:57;84155.19;;;-146.98;91.38
28432;BME280;15664;51.302;7.744;2023-01-29T09:24:22;84142.97;;;-146.98;91.16
28432;BME280;15664;51.302;7.744;2023-01-29T09:26:48;84193.88;;;-146.98;90.69
28432;BME280;15664;51.302;7.744;2023-01-29T09:29:13;84157.22;;;-146.98;90.21
28432;BME280;15664;51.302;7.744;2023-01-29T09:31:38;84161.28;;;-146.98;89.84
28432;BME280;15664;51.302;7.744;2023-01-29T09:34:04;84195.91;;;-146.98;90.04
28432;BME280;15664;51.302;7.744;2023-01-29T09:36:29;84161.28;;;-146.98;90.36
28432;BME280;15664;51.302;7.744;2023-01-29T09:38:54;84163.31;;;-146.98;90.80
28432;BME280;15664;51.302;7.744;2023-01-29T09:41:47;84145.00;;;-146.98;90.33
28432;BME280;15664;51.302;7.744;2023-01-29T09:44:27;84104.25;;;-146.98;90.33
28432;BME280;15664;51.302;7.744;2023-01-29T09:46:58;84104.25;;;-146.98;89.47
28432;BME280;15664;51.302;7.744;2023-01-29T09:49:35;84136.84;;;-146.98;87.47
28432;BME280;15664;51.302;7.744;2023-01-29T09:52:16;84090.00;;;-146.98;87.50
28432;BME280;15664;51.302;7.744;2023-01-29T09:55:03;84171.47;;;-146.98;86.32
28432;BME280;15664;51.302;7.744;2023-01-29T09:57:45;84169.44;;;-146.98;87.06
28432;BME280;15664;51.302;7.744;2023-01-29T10:00:14;84106.28;;;-146.98;86.93
28432;BME280;15664;51.302;7.744;2023-01-29T10:02:58;84159.25;;;-146.98;86.86
28432;BME280;15664;51.302;7.744;2023-01-29T10:05:54;84094.06;;;-146.98;86.02
28432;BME280;15664;51.302;7.744;2023-01-29T10:14:29;84120.56;;;-146.98;85.53
28432;BME280;15664;51.302;7.744;2023-01-29T10:17:24;84057.41;;;-146.98;84.60
28432;BME280;15664;51.302;7.744;2023-01-29T10:20:23;84077.78;;;-146.98;82.50
28432;BME280;15664;51.302;7.744;2023-01-29T10:23:17;84063.53;;;-146.98;82.64
28432;BME280;15664;51.302;7.744;2023-01-29T10:25:45;84049.25;;;-146.98;82.73
28432;BME280;15664;51.302;7.744;2023-01-29T10:28:27;84118.50;;;-146.98;82.96
28432;BME280;15664;51.302;7.744;2023-01-29T10:30:57;84016.69;;;-146.98;82.41
28432;BME280;15664;51.302;7.744;2023-01-29T10:33:30;84047.22;;;-146.98;82.50
28432;BME280;15664;51.302;7.744;2023-01-29T10:36:01;83996.31;;;-146.98;82.65
28432;BME280;15664;51.302;7.744;2023-01-29T10:44:23;83998.34;;;-146.98;81.55
28432;BME280;15664;51.302;7.744;2023-01-29T10:47:11;84092.03;;;-146.98;81.10
28432;BME280;15664;51.302;7.744;2023-01-29T10:50:40;84085.94;;;-146.98;81.00
28432;BME280;15664;51.302;7.744;2023-01-29T10:53:09;84108.34;;;-146.98;81.72
28432;BME280;15664;51.302;7.744;2023-01-29T10:56:03;84053.34;;;-146.98;81.96
28432;BME280;15664;51.302;7.744;2023-01-29T10:58:37;84057.41;;;-146.98;82.23
28432;BME280;15664;51.302;7.744;2023-01-29T11:01:08;84073.72;;;-146.98;82.18
28432;BME280;15664;51.302;7.744;2023-01-29T11:03:34;84077.78;;;-146.98;82.72
28432;BME280;15664;51.302;7.744;2023-01-29T11:06:20;84094.06;;;-146.98;81.89
28432;BME280;15664;51.302;7.744;2023-01-29T11:11:15;84026.84;;;-146.98;81.14
28432;BME280;15664;51.302;7.744;2023-01-29T11:13:53;84028.91;;;-146.98;81.42
28432;BME280;15664;51.302;7.744;2023-01-29T11:16:19;84041.13;;;-146.98;81.81
28432;BME280;15664;51.302;7.744;2023-01-29T11:18:54;84077.78;;;-146.98;81.49
28432;BME280;15664;51.302;7.744;2023-01-29T11:21:20;84037.03;;;-146.98;81.84
28432;BME280;15664;51.302;7.744;2023-01-29T11:23:46;84055.38;;;-146.98;81.80
28432;BME280;15664;51.302;7.744;2023-01-29T11:26:16;84010.56;;;-146.98;81.84
28432;BME280;15664;51.302;7.744;2023-01-29T11:28:45;84106.28;;;-146.98;82.11
28432;BME280;15664;51.302;7.744;2023-01-29T11:31:19;84032.97;;;-146.98;82.71
28432;BME280;15664;51.302;7.744;2023-01-29T11:33:45;84092.03;;;-146.98;82.73
28432;BME280;15664;51.302;7.744;2023-01-29T11:36:26;84108.34;;;-146.98;84.45
28432;BME280;15664;51.302;7.744;2023-01-29T11:39:24;84098.16;;;-146.98;84.04
28432;BME280;15664;51.302;7.744;2023-01-29T11:42:03;84073.72;;;-146.98;83.77
28432;BME280;15664;51.302;7.744;2023-01-29T11:47:09;84104.25;;;-146.98;83.61
28432;BME280;15664;51.302;7.744;2023-01-29T11:49:37;84126.66;;;-146.98;83.62
28432;BME280;15664;51.302;7.744;2023-01-29T11:52:05;84069.63;;;-146.98;83.03
28432;BME280;15664;51.302;7.744;2023-01-29T11:54:37;84081.84;;;-146.98;83.38
28432;BME280;15664;51.302;7.744;2023-01-29T11:57:04;84059.44;;;-146.98;83.97
28432;BME280;15664;51.302;7.744;2023-01-29T12:02:21;84079.81;;;-146.98;84.08
28432;BME280;15664;51.302;7.744;2023-01-29T12:04:48;84098.16;;;-146.98;84.27
28432;BME280;15664;51.302;7.744;2023-01-29T12:07:15;84092.03;;;-146.98;84.49
28432;BME280;15664;51.302;7.744;2023-01-29T12:09:47;84085.94;;;-146.98;84.61
28432;BME280;15664;51.302;7.744;2023-01-29T12:15:24;84075.75;;;-146.98;83.86
28432;BME280;15664;51.302;7.744;2023-01-29T12:18:03;84083.88;;;-146.98;83.32
28432;BME280;15664;51.302;7.744;2023-01-29T12:20:36;84035.00;;;-146.98;83.81
28432;BME280;15664;51.302;7.744;2023-01-29T12:23:24;84090.00;;;-146.98;83.48
28432;BME280;15664;51.302;7.744;2023-01-29T12:26:00;84136.84;;;-146.98;83.42
28432;BME280;15664;51.302;7.744;2023-01-29T12:28:40;84130.75;;;-146.98;84.09
28432;BME280;15664;51.302;7.744;2023-01-29T12:31:17;84081.84;;;-146.98;83.95
28432;BME280;15664;51.302;7.744;2023-01-29T12:34:04;84073.72;;;-146.98;84.57
28432;BME280;15664;51.302;7.744;2023-01-29T12:36:46;84083.88;;;-146.98;84.54
28432;BME280;15664;51.302;7.744;2023-01-29T12:39:18;84037.03;;;-146.98;84.11
28432;BME280;15664;51.302;7.744;2023-01-29T12:44:38;84061.47;;;-146.98;83.79
28432;BME280;15664;51.302;7.744;2023-01-29T12:47:13;84073.72;;;-146.98;83.84
28432;BME280;15664;51.302;7.744;2023-01-29T12:49:40;84028.91;;;-146.98;83.36
28432;BME280;15664;51.302;7.744;2023-01-29T12:52:27;84053.34;;;-146.98;82.52
28432;BME280;15664;51.302;7.744;2023-01-29T12:55:00;84136.84;;;-146.98;82.62
28432;BME280;15664;51.302;7.744;2023-01-29T12:57:44;84155.19;;;-146.98;82.11
28432;BME280;15664;51.302;7.744;2023-01-29T13:00:21;84028.91;;;-146.98;82.48
28432;BME280;15664;51.302;7.744;2023-01-29T13:09:19;84043.16;;;-146.98;80.06
28432;BME280;15664;51.302;7.744;2023-01-29T13:11:52;84037.03;;;-146.98;79.90
28432;BME280;15664;51.302;7.744;2023-01-29T13:14:30;84008.53;;;-146.98;79.82
28432;BME280;15664;51.302;7.744;2023-01-29T13:17:15;84022.78;;;-146.98;79.23
28432;BME280;15664;51.302;7.744;2023-01-29T13:19:44;84008.53;;;-146.98;79.48
28432;BME280;15664;51.302;7.744;2023-01-29T13:22:33;84000.38;;;-146.98;80.17
28432;BME280;15664;51.302;7.744;2023-01-29T13:25:02;83988.16;;;-146.98;80.10
28432;BME280;15664;51.302;7.744;2023-01-29T13:27:30;84020.75;;;-146.98;79.75
28432;BME280;15664;51.302;7.744;2023-01-29T13:29:57;84039.09;;;-146.98;79.40
28432;BME280;15664;51.302;7.744;2023-01-29T13:32:25;84049.25;;;-146.98;78.97
28432;BME280;15664;51.302;7.744;2023-01-29T13:35:00;83992.22;;;-146.98;79.90
28432;BME280;15664;51.302;7.744;2023-01-29T13:37:33;84020.75;;;-146.98;80.17
28432;BME280;15664;51.302;7.744;2023-01-29T13:40:02;84000.38;;;-146.98;79.17
28432;BME280;15664;51.302;7.744;2023-01-29T13:42:47;84028.91;;;-146.98;80.51
28432;BME280;15664;51.302;7.744;2023-01-29T13:47:45;84035.00;;;-146.98;81.04
28432;BME280;15664;51.302;7.744;2023-01-29T13:50:34;84028.91;;;-146.98;81.25
28432;BME280;15664;51.302;7.744;2023-01-29T13:53:03;84020.75;;;-146.98;81.70
28432;BME280;15664;51.302;7.744;2023-01-29T13:55:31;84053.34;;;-146.98;81.87
28432;BME280;15664;51.302;7.744;2023-01-29T13:58:14;84053.34;;;-146.98;82.66
28432;BME280;15664;51.302;7.744;2023-01-29T14:05:43;84061.47;;;-146.98;82.31
28432;BME280;15664;51.302;7.744;2023-01-29T14:08:43;84049.25;;;-146.98;82.29
28432;BME280;15664;51.302;7.744;2023-01-29T14:13:37;84049.25;;;-146.98;82.57
28432;BME280;15664;51.302;7.744;2023-01-29T14:18:30;84051.31;;;-146.98;82.89
28432;BME280;15664;51.302;7.744;2023-01-29T14:21:02;84053.34;;;-146.98;82.74
28432;BME280;15664;51.302;7.744;2023-01-29T14:23:47;84008.53;;;-146.98;82.86